Weather reports worldwide

Advertisment
Cairnwell, United Kingdom (3072): temperature & dewpoint: 12.02.2020 11:00:00 - 18.02.2020 11:00:00 (GMT)Cairnwell, United Kingdom (3072): wind speed & gusts: 12.02.2020 11:00:00 - 18.02.2020 11:00:00 (GMT)Cairnwell, United Kingdom (3072): wind direction: 12.02.2020 11:00:00 - 18.02.2020 11:00:00 (GMT)
Date & Time tt [°C] td [°C] ff [km/h] ff [kn] fx [km/h] fx [kn] dd
18.02.2020 11:00:00 - - - - - - -
18.02.2020 10:00:00 -2,9 -2,9 42 23 65 35 SW
18.02.2020 09:00:00 -3,2 -3,2 41 22 72 39 SW
18.02.2020 08:00:00 -3,2 -3,2 - - 83 45 -
18.02.2020 07:00:00 -3,1 -3,1 59 32 100 54 WSW
18.02.2020 06:00:00 -3,1 -3,1 65 35 120 65 WSW
18.02.2020 05:00:00 -3,2 -3,3 72 39 113 61 W
18.02.2020 04:00:00 -3,2 -3,2 78 42 109 59 WSW
18.02.2020 03:00:00 -3,2 -3,2 61 33 94 51 WSW
18.02.2020 02:00:00 -3,3 -3,4 67 36 106 57 W
18.02.2020 01:00:00 -3,3 -4,2 76 41 106 57 W
18.02.2020 00:00:00 -3,0 -3,5 70 38 91 49 W
17.02.2020 23:00:00 -2,5 -2,5 55 30 102 55 W
17.02.2020 22:00:00 -2,3 -2,3 83 45 120 65 W
17.02.2020 21:00:00 -2,2 -2,2 68 37 100 54 W
17.02.2020 20:00:00 -2,0 -2,0 63 34 104 56 W
17.02.2020 19:00:00 -1,9 -1,9 70 38 104 56 W
17.02.2020 18:00:00 -1,7 -1,7 67 36 126 68 WSW
17.02.2020 17:00:00 -1,7 -1,7 80 43 117 63 WSW
17.02.2020 16:00:00 -1,3 -1,3 80 43 111 60 WSW
17.02.2020 15:00:00 -1,0 -1,4 68 37 122 66 W
17.02.2020 14:00:00 -0,9 -1,5 85 46 120 65 W
17.02.2020 13:00:00 -0,6 -0,9 93 50 133 72 W
17.02.2020 12:00:00 -0,6 -0,6 83 45 120 65 W
17.02.2020 11:00:00 -0,6 -1,2 93 50 128 69 W
17.02.2020 10:00:00 -0,3 -0,3 96 52 131 71 W
17.02.2020 09:00:00 -0,4 -0,4 91 49 128 69 W
17.02.2020 08:00:00 -0,7 -0,7 - - 113 61 -
17.02.2020 07:00:00 -0,7 -0,7 78 42 122 66 W
17.02.2020 06:00:00 -0,6 -0,6 87 47 154 83 W
17.02.2020 05:00:00 -0,8 -0,8 102 55 148 80 W
17.02.2020 04:00:00 -1,3 -1,3 67 36 135 73 WSW
17.02.2020 03:00:00 -1,0 -1,0 93 50 128 69 WSW
17.02.2020 02:00:00 -1,7 -1,7 89 48 133 72 WSW
17.02.2020 01:00:00 -1,9 -1,9 94 51 139 75 WSW
17.02.2020 00:00:00 -2,0 -2,0 109 59 143 77 SW
16.02.2020 23:00:00 -2,0 -2,0 107 58 146 79 WSW
16.02.2020 22:00:00 -2,2 -2,2 106 57 135 73 SW
16.02.2020 21:00:00 -2,2 -2,2 96 52 146 79 SW
16.02.2020 20:00:00 -2,1 -2,1 135 73 161 87 WSW
16.02.2020 19:00:00 -1,9 -1,9 117 63 137 74 WSW
16.02.2020 18:00:00 -2,3 -2,3 102 55 124 67 SW
16.02.2020 17:00:00 -2,2 -2,2 87 47 120 65 SW
16.02.2020 16:00:00 -2,2 -2,2 81 44 111 60 SSW
16.02.2020 15:00:00 -2,2 -2,2 85 46 104 56 SSW
16.02.2020 14:00:00 -2,2 -2,2 76 41 117 63 SSW
16.02.2020 13:00:00 -2,2 -2,2 68 37 111 60 SSW
16.02.2020 12:00:00 -2,1 -2,5 83 45 113 61 SW
16.02.2020 11:00:00 -2,9 -3,0 91 49 115 62 SW
16.02.2020 10:00:00 -3,3 -3,3 72 39 124 67 SW
16.02.2020 09:00:00 -3,6 -3,6 87 47 119 64 SW
16.02.2020 08:00:00 -3,8 -3,9 85 46 128 69 WSW
16.02.2020 07:00:00 -3,4 -3,7 93 50 117 63 WSW
16.02.2020 06:00:00 -2,4 -2,4 93 50 131 71 SW
16.02.2020 05:00:00 -1,7 -1,7 68 37 109 59 SSW
16.02.2020 04:00:00 -1,2 -1,2 63 34 85 46 SW
16.02.2020 03:00:00 -2,1 -2,1 63 34 100 54 S
16.02.2020 02:00:00 -1,2 -1,2 72 39 91 49 S
16.02.2020 01:00:00 -1,6 -1,6 65 35 83 45 S
16.02.2020 00:00:00 -2,1 -2,1 50 27 89 48 SSW
15.02.2020 23:00:00 -1,8 -1,8 70 38 107 58 SW
15.02.2020 22:00:00 -1,6 -1,6 76 41 102 55 SW
15.02.2020 21:00:00 -1,2 -1,2 65 35 80 43 SW
15.02.2020 20:00:00 -0,8 -0,8 50 27 96 52 SW
15.02.2020 19:00:00 -0,6 -0,6 70 38 111 60 WSW
15.02.2020 18:00:00 2,0 2,0 78 42 98 53 WSW
15.02.2020 17:00:00 2,9 2,9 76 41 120 65 S
15.02.2020 16:00:00 2,9 2,9 78 42 115 62 S
15.02.2020 15:00:00 3,1 3,1 93 50 115 62 S
15.02.2020 14:00:00 2,7 2,7 80 43 104 56 S
15.02.2020 13:00:00 0,6 0,6 80 43 119 64 S
15.02.2020 12:00:00 0,0 0,0 98 53 133 72 SSE
15.02.2020 11:00:00 -0,3 -0,3 104 56 135 73 SSE
15.02.2020 10:00:00 -0,3 -0,3 106 57 133 72 SSE
15.02.2020 09:00:00 -0,3 -0,3 111 60 137 74 S
15.02.2020 08:00:00 -0,5 -0,5 100 54 119 64 S
15.02.2020 07:00:00 -1,0 -1,0 87 47 109 59 S
15.02.2020 06:00:00 -1,7 -1,7 70 38 87 47 S
15.02.2020 05:00:00 -1,6 -1,6 54 29 65 35 S
15.02.2020 04:00:00 -1,9 -1,9 46 25 61 33 SSW
15.02.2020 03:00:00 -1,6 -1,6 57 31 70 38 S
15.02.2020 02:00:00 -1,8 -1,8 59 32 68 37 SSW
15.02.2020 01:00:00 -1,9 -1,9 46 25 61 33 SSW
15.02.2020 00:00:00 -1,8 -1,8 52 28 61 33 SW
14.02.2020 23:00:00 -2,1 -2,1 44 24 67 36 WSW
14.02.2020 22:00:00 -1,9 -1,9 57 31 80 43 WSW
14.02.2020 21:00:00 -2,9 -2,9 54 29 81 44 WSW
14.02.2020 20:00:00 -1,9 -1,9 59 32 104 56 WSW
14.02.2020 19:00:00 -1,7 -1,7 68 37 115 62 WSW
14.02.2020 18:00:00 -0,6 -0,7 78 42 117 63 SW
14.02.2020 17:00:00 0,2 0,0 76 41 126 68 WSW
14.02.2020 16:00:00 1,0 1,0 78 42 122 66 WSW
14.02.2020 15:00:00 1,3 1,3 70 38 102 55 SW
14.02.2020 14:00:00 0,3 0,3 67 36 94 51 SSW
14.02.2020 13:00:00 0,0 0,0 80 43 100 54 SSW
14.02.2020 12:00:00 -0,7 -0,7 68 37 100 54 S
14.02.2020 11:00:00 -1,3 -1,3 80 43 104 56 S
14.02.2020 10:00:00 -1,5 -1,5 80 43 106 57 S
14.02.2020 09:00:00 -1,9 -1,9 85 46 115 62 S
14.02.2020 08:00:00 -2,1 -2,1 81 44 102 55 S
14.02.2020 07:00:00 -1,9 -1,9 81 44 102 55 S
14.02.2020 06:00:00 -2,4 -2,4 70 38 89 48 SSE
14.02.2020 05:00:00 -3,0 -3,0 52 28 68 37 S
14.02.2020 04:00:00 -3,5 -3,6 44 24 59 32 S
14.02.2020 03:00:00 -3,4 -3,4 44 24 54 29 S
14.02.2020 02:00:00 -3,3 -3,3 41 22 - - S
14.02.2020 01:00:00 -3,6 -3,6 31 17 - - S
14.02.2020 00:00:00 -3,6 -3,7 24 13 - - SSW
13.02.2020 23:00:00 -3,4 -3,5 26 14 - - SW
13.02.2020 22:00:00 -4,1 -4,4 4 2 - - WSW
13.02.2020 21:00:00 -4,2 -4,5 11 6 - - N
13.02.2020 20:00:00 -3,9 -4,0 15 8 - - NNE
13.02.2020 19:00:00 -3,8 -3,9 18 10 - - N
13.02.2020 18:00:00 -3,4 -3,5 18 10 - - NNE
13.02.2020 17:00:00 -3,0 -3,2 29 16 - - N
13.02.2020 16:00:00 -2,8 -3,6 28 15 - - NNE
13.02.2020 15:00:00 -3,0 -4,0 34 18 48 26 NNE
13.02.2020 14:00:00 -3,0 -3,6 41 22 50 27 NNE
13.02.2020 13:00:00 -3,3 -3,4 39 21 55 30 NNE
13.02.2020 12:00:00 -3,6 -3,7 39 21 52 28 NNE
13.02.2020 11:00:00 -3,6 -3,6 37 20 65 35 ENE
13.02.2020 10:00:00 -3,9 -4,0 41 22 61 33 NE
13.02.2020 09:00:00 -4,3 -4,3 41 22 59 32 ENE
13.02.2020 08:00:00 -4,2 -4,3 39 21 55 30 ENE
13.02.2020 07:00:00 -4,3 -4,7 37 20 61 33 ESE
13.02.2020 06:00:00 -4,1 -4,9 41 22 57 31 ESE
13.02.2020 05:00:00 -4,6 -6,0 39 21 52 28 SE
13.02.2020 04:00:00 -4,9 -6,1 29 16 - - SE
13.02.2020 03:00:00 -4,9 -5,1 21 11 - - SSE
13.02.2020 02:00:00 -4,7 -4,8 24 13 - - SSW
13.02.2020 01:00:00 -5,2 -5,4 31 17 - - SSW
13.02.2020 00:00:00 -5,3 -5,6 24 13 - - SW
12.02.2020 23:00:00 -6,0 -6,3 16 9 - - SSW
12.02.2020 22:00:00 -5,2 -5,6 35 19 52 28 WSW
12.02.2020 21:00:00 -5,4 -5,6 16 9 52 28 S
12.02.2020 20:00:00 -5,1 -5,7 37 20 54 29 W
12.02.2020 19:00:00 -5,2 -5,5 35 19 63 34 WSW
12.02.2020 18:00:00 -4,8 -5,8 59 32 102 55 W
12.02.2020 17:00:00 -4,7 -5,0 55 30 91 49 W
12.02.2020 16:00:00 -4,6 -5,2 65 35 91 49 W
12.02.2020 15:00:00 -4,4 -4,9 80 43 104 56 W
12.02.2020 14:00:00 -3,8 -4,6 67 36 96 52 W
12.02.2020 13:00:00 -3,6 -4,7 65 35 96 52 W
12.02.2020 12:00:00 -4,4 -4,7 74 40 119 64 W
12.02.2020 11:00:00 -3,7 -4,2 74 40 131 71 W

tt = temperature
td = dewpoint
ff = wind speed
fx = gusts
dd = wind direction

Next stations